createdAt,value
2018-04-22T00:01:45.155Z,23.16
2018-04-22T00:04:15.767Z,23.19
2018-04-22T00:06:46.229Z,23.15
2018-04-22T00:09:16.939Z,23.04
2018-04-22T00:11:47.226Z,23.02
2018-04-22T00:14:20.111Z,23.08
2018-04-22T00:16:50.692Z,23.09
2018-04-22T00:19:23.845Z,23.04
2018-04-22T00:21:54.600Z,23.00
2018-04-22T00:24:25.052Z,23.01
2018-04-22T00:27:02.494Z,22.99
2018-04-22T00:29:36.346Z,22.92
2018-04-22T00:32:07.248Z,22.93
2018-04-22T00:34:38.775Z,22.99
2018-04-22T00:37:09.331Z,23.00
2018-04-22T00:39:40.310Z,22.95
2018-04-22T00:42:13.451Z,22.96
2018-04-22T00:44:45.366Z,23.03
2018-04-22T00:47:16.024Z,23.02
2018-04-22T00:49:46.429Z,22.90
2018-04-22T00:52:17.187Z,22.92
2018-04-22T00:54:47.672Z,22.99
2018-04-22T00:57:18.367Z,23.02
2018-04-22T00:59:48.762Z,23.02
2018-04-22T01:02:20.112Z,23.06
2018-04-22T01:04:57.363Z,22.92
2018-04-22T01:07:27.893Z,22.73
2018-04-22T01:09:58.585Z,22.74
2018-04-22T01:12:29.680Z,22.75
2018-04-22T01:15:00.159Z,22.70
2018-04-22T01:17:33.760Z,22.58
2018-04-22T01:20:04.230Z,22.69
2018-04-22T01:22:34.501Z,22.70
2018-04-22T01:25:06.843Z,22.66
2018-04-22T01:27:37.920Z,22.61
2018-04-22T01:30:08.843Z,22.39
2018-04-22T01:32:40.242Z,22.36
2018-04-22T01:35:12.265Z,22.34
2018-04-22T01:37:42.749Z,22.35
2018-04-22T01:40:13.265Z,22.44
2018-04-22T01:42:44.055Z,22.47
2018-04-22T01:45:16.045Z,22.61
2018-04-22T01:47:46.591Z,22.56
2018-04-22T01:50:17.675Z,22.57
2018-04-22T01:52:48.152Z,22.64
2018-04-22T01:55:18.553Z,22.53
2018-04-22T01:57:49.351Z,22.42
2018-04-22T02:00:19.811Z,22.47
2018-04-22T02:02:50.288Z,22.34
2018-04-22T02:05:20.703Z,22.24
2018-04-22T02:07:51.141Z,22.19
2018-04-22T02:10:21.702Z,22.12
2018-04-22T02:12:52.230Z,22.02
2018-04-22T02:15:22.834Z,21.96
2018-04-22T02:17:53.344Z,21.92
2018-04-22T02:20:24.201Z,21.90
2018-04-22T02:22:55.712Z,21.61
2018-04-22T02:25:26.204Z,21.55
2018-04-22T02:27:56.956Z,21.70
2018-04-22T02:30:27.474Z,21.75
2018-04-22T02:32:57.917Z,21.83
2018-04-22T02:35:28.380Z,21.92
2018-04-22T02:37:58.803Z,21.84
2018-04-22T02:40:29.273Z,21.84
2018-04-22T02:42:59.753Z,21.84
2018-04-22T02:45:30.154Z,21.88
2018-04-22T02:48:00.639Z,21.91
2018-04-22T02:50:31.101Z,21.96
2018-04-22T02:53:01.573Z,22.09
2018-04-22T02:55:33.193Z,22.08
2018-04-22T02:58:03.938Z,22.15
2018-04-22T03:00:34.312Z,22.08
2018-04-22T03:03:04.884Z,21.67
2018-04-22T03:05:35.376Z,21.64
2018-04-22T03:08:05.797Z,21.61
2018-04-22T03:10:36.284Z,21.12
2018-04-22T03:13:06.818Z,20.68
2018-04-22T03:15:37.379Z,20.84
2018-04-22T03:18:07.780Z,20.62
2018-04-22T03:20:38.218Z,20.36
2018-04-22T03:23:08.669Z,20.29
2018-04-22T03:25:39.105Z,20.30
2018-04-22T03:28:09.643Z,19.86
2018-04-22T03:30:40.197Z,19.57
2018-04-22T03:33:11.006Z,19.73
2018-04-22T03:35:42.139Z,19.78
2018-04-22T03:38:12.329Z,19.65
2018-04-22T03:40:43.822Z,19.57
2018-04-22T03:43:14.243Z,19.56
2018-04-22T03:45:44.749Z,19.66
2018-04-22T03:48:15.226Z,19.40
2018-04-22T03:50:45.673Z,19.36
2018-04-22T03:53:16.605Z,19.32
2018-04-22T03:55:47.032Z,19.48
2018-04-22T03:58:17.517Z,19.51
2018-04-22T04:00:48.465Z,19.43
2018-04-22T04:03:18.767Z,19.37
2018-04-22T04:05:49.292Z,19.44
2018-04-22T04:08:20.187Z,19.43
2018-04-22T04:10:50.791Z,19.26
2018-04-22T04:13:21.236Z,19.19
2018-04-22T04:15:55.693Z,19.30
2018-04-22T04:18:36.838Z,19.38
2018-04-22T04:23:19.472Z,19.19
2018-04-22T04:27:57.307Z,19.10
2018-04-22T04:30:27.804Z,18.82
2018-04-22T04:32:58.358Z,18.86
2018-04-22T04:35:28.840Z,18.95
2018-04-22T04:37:59.334Z,19.14
2018-04-22T04:40:30.232Z,19.19
2018-04-22T04:43:00.732Z,19.25
2018-04-22T04:45:31.301Z,19.25
2018-04-22T04:48:01.843Z,19.26
2018-04-22T04:50:32.298Z,19.31
2018-04-22T04:53:02.874Z,19.33
2018-04-22T04:55:34.653Z,19.48
2018-04-22T04:58:07.174Z,19.62
2018-04-22T05:00:37.425Z,19.80
2018-04-22T05:03:07.823Z,19.95
2018-04-22T05:05:38.316Z,20.10
2018-04-22T05:08:09.491Z,20.25
2018-04-22T05:10:40.237Z,20.36
2018-04-22T05:13:11.244Z,20.50
2018-04-22T05:15:41.726Z,20.69
2018-04-22T05:18:12.285Z,20.75
2018-04-22T05:20:43.102Z,20.93
2018-04-22T05:23:13.580Z,21.13
2018-04-22T05:25:50.465Z,21.29
2018-04-22T05:28:20.932Z,21.52
2018-04-22T05:30:51.942Z,21.71
2018-04-22T05:33:22.507Z,21.78
2018-04-22T05:35:52.925Z,21.99
2018-04-22T05:38:23.429Z,22.13
2018-04-22T05:40:53.866Z,22.16
2018-04-22T05:43:24.350Z,22.45
2018-04-22T05:45:56.158Z,22.52
2018-04-22T05:48:26.641Z,22.59
2018-04-22T05:50:57.969Z,22.63
2018-04-22T05:53:28.466Z,22.71
2018-04-22T05:55:59.670Z,22.65
2018-04-22T05:58:30.096Z,22.91
2018-04-22T06:01:03.193Z,23.07
2018-04-22T06:03:33.706Z,23.01
2018-04-22T06:06:04.236Z,23.19
2018-04-22T06:08:36.153Z,23.36
2018-04-22T06:11:06.867Z,23.43
2018-04-22T06:13:40.088Z,23.29
2018-04-22T06:16:11.119Z,23.28
2018-04-22T06:18:42.272Z,23.57
2018-04-22T06:21:12.679Z,23.57
2018-04-22T06:23:43.202Z,23.71
2018-04-22T06:26:13.681Z,23.93
2018-04-22T06:28:44.529Z,23.95
2018-04-22T06:31:15.115Z,24.13
2018-04-22T06:33:45.569Z,24.45
2018-04-22T06:36:16.339Z,24.31
2018-04-22T06:38:46.829Z,24.58
2018-04-22T06:41:18.156Z,24.82
2018-04-22T06:43:49.071Z,24.62
2018-04-22T06:46:19.519Z,24.60
2018-04-22T06:48:49.985Z,24.64
2018-04-22T06:51:20.779Z,24.82
2018-04-22T06:53:51.221Z,24.69
2018-04-22T06:56:21.673Z,24.94
2018-04-22T06:58:53.226Z,25.39
2018-04-22T07:01:23.677Z,25.84
2018-04-22T07:03:54.367Z,25.81
2018-04-22T07:06:24.878Z,25.89
2018-04-22T07:08:55.347Z,25.90
2018-04-22T07:11:27.165Z,25.58
2018-04-22T07:13:57.672Z,25.19
2018-04-22T07:16:28.156Z,25.26
2018-04-22T07:18:59.225Z,25.71
2018-04-22T07:21:29.692Z,26.11
2018-04-22T07:24:00.197Z,26.74
2018-04-22T07:26:33.539Z,27.41
2018-04-22T07:29:04.078Z,27.55
2018-04-22T07:31:34.584Z,27.04
2018-04-22T07:34:05.302Z,27.17
2018-04-22T07:36:38.902Z,27.32
2018-04-22T07:39:09.401Z,27.18
2018-04-22T07:41:40.218Z,27.26
2018-04-22T07:44:11.020Z,27.48
2018-04-22T07:46:41.491Z,27.52
2018-04-22T07:49:12.008Z,27.78
2018-04-22T07:51:42.495Z,28.10
2018-04-22T07:54:13.070Z,28.53
2018-04-22T07:56:43.711Z,28.93
2018-04-22T07:59:14.236Z,29.23
2018-04-22T08:01:44.737Z,28.81
2018-04-22T08:04:17.906Z,28.79
2018-04-22T08:06:48.571Z,29.15
2018-04-22T08:09:19.281Z,29.65
2018-04-22T08:11:50.465Z,29.91
2018-04-22T08:14:21.013Z,30.13
2018-04-22T08:16:51.781Z,30.14
2018-04-22T08:19:22.296Z,30.55
2018-04-22T08:21:54.969Z,30.65
2018-04-22T08:24:25.835Z,30.95
2018-04-22T08:26:58.225Z,30.73
2018-04-22T08:29:30.623Z,30.83
2018-04-22T08:32:01.212Z,31.03
2018-04-22T08:34:31.777Z,31.08
2018-04-22T08:37:02.276Z,31.35
2018-04-22T08:39:32.836Z,31.57
2018-04-22T08:42:03.810Z,31.97
2018-04-22T08:44:34.312Z,32.04
2018-04-22T08:47:04.788Z,31.89
2018-04-22T08:49:35.231Z,32.33
2018-04-22T08:52:08.386Z,32.30
2018-04-22T08:54:38.952Z,32.45
2018-04-22T08:57:12.143Z,32.67
2018-04-22T08:59:44.553Z,33.00
2018-04-22T09:02:16.960Z,32.83
2018-04-22T09:04:47.421Z,33.35
2018-04-22T09:07:19.788Z,33.39
2018-04-22T09:09:54.364Z,33.28
2018-04-22T09:12:26.748Z,33.59
2018-04-22T09:14:59.536Z,33.58
2018-04-22T09:17:30.153Z,33.78
2018-04-22T09:20:03.390Z,33.85
2018-04-22T09:22:35.948Z,33.74
2018-04-22T09:25:08.364Z,33.84
2018-04-22T09:27:41.578Z,34.18
2018-04-22T09:30:16.062Z,34.30
2018-04-22T09:32:48.527Z,34.31
2018-04-22T09:35:20.923Z,34.45
2018-04-22T09:37:53.398Z,34.16
2018-04-22T09:40:25.831Z,33.53
2018-04-22T09:42:58.631Z,33.60
2018-04-22T09:45:31.076Z,33.83
2018-04-22T09:48:05.291Z,34.19
2018-04-22T09:50:37.729Z,33.60
2018-04-22T09:53:10.166Z,33.18
2018-04-22T09:55:42.962Z,32.66
2018-04-22T09:58:15.665Z,32.75
2018-04-22T10:00:47.984Z,32.69
2018-04-22T10:03:22.079Z,32.46
2018-04-22T10:05:57.244Z,32.88
2018-04-22T10:08:29.875Z,33.38
2018-04-22T10:11:02.329Z,33.44
2018-04-22T10:13:32.868Z,33.01
2018-04-22T10:16:03.750Z,33.03
2018-04-22T10:18:36.157Z,33.00
2018-04-22T10:21:08.797Z,33.02
2018-04-22T10:23:42.511Z,33.18
2018-04-22T10:26:15.609Z,32.72
2018-04-22T10:28:48.804Z,32.15
2018-04-22T10:31:19.586Z,31.86
2018-04-22T10:33:52.075Z,31.82
2018-04-22T10:36:24.584Z,31.86
2018-04-22T10:38:55.116Z,32.45
2018-04-22T10:41:25.700Z,33.06
2018-04-22T10:43:56.562Z,32.87
2018-04-22T10:46:29.749Z,33.09
2018-04-22T10:49:03.307Z,33.64
2018-04-22T10:51:36.515Z,33.66
2018-04-22T10:54:07.403Z,33.39
2018-04-22T10:56:40.772Z,33.41
2018-04-22T10:59:14.133Z,33.54
2018-04-22T11:01:46.706Z,33.32
2018-04-22T11:04:17.292Z,33.51
2018-04-22T11:06:50.162Z,33.88
2018-04-22T11:09:23.394Z,33.92
2018-04-22T11:11:54.653Z,34.12
2018-04-22T11:14:27.167Z,34.59
2018-04-22T11:17:01.762Z,34.85
2018-04-22T11:19:34.189Z,35.13
2018-04-22T11:22:07.542Z,35.25
2018-04-22T11:24:40.873Z,35.33
2018-04-22T11:27:14.299Z,35.33
2018-04-22T11:29:46.685Z,35.32
2018-04-22T11:32:19.860Z,35.60
2018-04-22T11:34:53.373Z,35.84
2018-04-22T11:37:25.811Z,36.07
2018-04-22T11:39:58.914Z,36.34
2018-04-22T11:42:31.565Z,36.40
2018-04-22T11:45:05.436Z,36.38
2018-04-22T11:47:38.881Z,36.51
2018-04-22T11:50:11.383Z,36.36
2018-04-22T11:52:44.922Z,36.46
2018-04-22T11:55:17.308Z,36.55
2018-04-22T11:57:50.013Z,36.51
2018-04-22T12:00:22.476Z,36.38
2018-04-22T12:02:56.345Z,36.50
2018-04-22T12:05:29.193Z,36.37
2018-04-22T12:08:03.201Z,35.73
2018-04-22T12:10:35.764Z,35.59
2018-04-22T12:13:09.219Z,35.54
2018-04-22T12:15:42.381Z,35.54
2018-04-22T12:18:15.765Z,35.38
2018-04-22T12:20:46.385Z,35.54
2018-04-22T12:23:19.565Z,35.73
2018-04-22T12:25:53.155Z,35.87
2018-04-22T12:28:26.143Z,35.92
2018-04-22T12:30:59.085Z,35.67
2018-04-22T12:33:32.630Z,35.76
2018-04-22T12:36:03.357Z,35.85
2018-04-22T12:38:33.813Z,35.89
2018-04-22T12:41:06.273Z,36.13
2018-04-22T12:43:38.643Z,36.44
2018-04-22T12:46:09.482Z,36.43
2018-04-22T12:48:40.016Z,36.20
2018-04-22T12:51:12.496Z,35.54
2018-04-22T12:53:43.118Z,34.87
2018-04-22T12:56:15.463Z,34.89
2018-04-22T12:58:46.096Z,35.16
2018-04-22T13:01:16.533Z,35.35
2018-04-22T13:03:47.305Z,35.47
2018-04-22T13:06:17.730Z,35.61
2018-04-22T13:08:48.335Z,35.76
2018-04-22T13:11:19.182Z,35.63
2018-04-22T13:13:49.756Z,35.46
2018-04-22T13:16:20.241Z,35.77
2018-04-22T13:18:50.976Z,35.82
2018-04-22T13:21:21.497Z,35.89
2018-04-22T13:23:52.347Z,36.15
2018-04-22T13:26:24.279Z,35.79
2018-04-22T13:28:55.554Z,36.08
2018-04-22T13:31:26.079Z,35.72
2018-04-22T13:33:56.880Z,35.77
2018-04-22T13:36:27.450Z,35.54
2018-04-22T13:38:58.149Z,36.26
2018-04-22T13:41:29.949Z,36.34
2018-04-22T13:44:01.015Z,36.04
2018-04-22T13:46:31.663Z,35.56
2018-04-22T13:49:02.370Z,35.17
2018-04-22T13:51:33.169Z,35.32
2018-04-22T13:54:05.706Z,35.48
2018-04-22T13:56:36.213Z,35.84
2018-04-22T13:59:06.855Z,35.98
2018-04-22T14:01:37.405Z,35.62
2018-04-22T14:04:07.936Z,35.21
2018-04-22T14:06:39.876Z,35.36
2018-04-22T14:09:10.426Z,35.46
2018-04-22T14:11:41.065Z,35.55
2018-04-22T14:14:11.924Z,35.48
2018-04-22T14:16:42.449Z,35.58
2018-04-22T14:19:12.996Z,35.75
2018-04-22T14:21:44.175Z,35.94
2018-04-22T14:24:14.648Z,36.31
2018-04-22T14:26:45.088Z,36.73
2018-04-22T14:29:15.666Z,36.83
2018-04-22T14:31:46.139Z,36.47
2018-04-22T14:34:16.779Z,36.28
2018-04-22T14:36:47.343Z,36.15
2018-04-22T14:39:17.823Z,35.83
2018-04-22T14:41:48.326Z,36.05
2018-04-22T14:46:30.611Z,36.20
2018-04-22T14:49:07.151Z,35.23
2018-04-22T14:51:38.115Z,35.30
2018-04-22T14:54:08.663Z,35.13
2018-04-22T14:56:39.562Z,34.92
2018-04-22T14:59:10.063Z,34.94
2018-04-22T15:01:40.519Z,35.08
2018-04-22T15:04:12.001Z,35.22
2018-04-22T15:06:43.217Z,34.96
2018-04-22T15:09:13.850Z,35.19
2018-04-22T15:11:44.347Z,35.21
2018-04-22T15:14:15.254Z,35.30
2018-04-22T15:16:45.775Z,35.49
2018-04-22T15:19:16.340Z,35.81
2018-04-22T15:21:47.439Z,35.97
2018-04-22T15:24:17.911Z,36.33
2018-04-22T15:26:49.356Z,36.63
2018-04-22T15:29:20.159Z,36.91
2018-04-22T15:31:51.375Z,37.06
2018-04-22T15:34:22.484Z,37.38
2018-04-22T15:36:52.960Z,37.24
2018-04-22T15:39:23.458Z,37.33
2018-04-22T15:41:54.730Z,37.25
2018-04-22T15:44:25.439Z,37.29
2018-04-22T15:46:55.699Z,37.43
2018-04-22T15:49:26.647Z,37.35
2018-04-22T15:51:57.226Z,37.02
2018-04-22T15:54:27.907Z,36.82
2018-04-22T15:57:00.577Z,36.79
2018-04-22T15:59:31.021Z,36.40
2018-04-22T16:02:02.013Z,35.97
2018-04-22T16:04:32.951Z,35.86
2018-04-22T16:07:03.595Z,35.56
2018-04-22T16:09:35.911Z,35.25
2018-04-22T16:12:07.480Z,34.97
2018-04-22T16:14:38.077Z,34.79
2018-04-22T16:17:09.012Z,34.78
2018-04-22T16:19:39.885Z,34.99
2018-04-22T16:22:10.344Z,34.90
2018-04-22T16:24:40.881Z,35.04
2018-04-22T16:27:14.015Z,34.64
2018-04-22T16:29:44.738Z,34.61
2018-04-22T16:32:15.257Z,34.63
2018-04-22T16:34:53.317Z,34.60
2018-04-22T16:37:25.599Z,34.76
2018-04-22T16:39:56.954Z,34.97
2018-04-22T16:42:28.392Z,35.11
2018-04-22T16:45:00.707Z,35.15
2018-04-22T16:47:32.353Z,35.02
2018-04-22T16:50:03.719Z,34.90
2018-04-22T16:52:35.943Z,34.56
2018-04-22T16:55:08.587Z,34.12
2018-04-22T16:57:39.965Z,33.95
2018-04-22T17:00:10.497Z,33.95
2018-04-22T17:02:42.004Z,34.05
2018-04-22T17:05:12.526Z,34.34
2018-04-22T17:07:43.963Z,34.17
2018-04-22T17:10:15.336Z,34.03
2018-04-22T17:12:46.896Z,33.60
2018-04-22T17:15:18.222Z,33.15
2018-04-22T17:17:48.770Z,32.75
2018-04-22T17:20:21.050Z,32.59
2018-04-22T17:22:51.657Z,32.34
2018-04-22T17:25:22.131Z,32.17
2018-04-22T17:27:54.679Z,31.85
2018-04-22T17:30:25.600Z,31.71
2018-04-22T17:32:57.146Z,31.38
2018-04-22T17:35:29.370Z,31.17
2018-04-22T17:38:01.657Z,31.21
2018-04-22T17:40:32.183Z,31.05
2018-04-22T17:43:02.753Z,30.77
2018-04-22T17:45:33.602Z,30.63
2018-04-22T17:48:04.987Z,30.59
2018-04-22T17:50:35.524Z,30.47
2018-04-22T17:53:07.787Z,30.21
2018-04-22T17:55:38.390Z,29.94
2018-04-22T17:58:09.793Z,29.84
2018-04-22T18:00:40.277Z,29.71
2018-04-22T18:03:10.763Z,29.51
2018-04-22T18:05:41.451Z,29.42
2018-04-22T18:08:12.540Z,29.30
2018-04-22T18:10:43.360Z,29.21
2018-04-22T18:13:16.640Z,29.22
2018-04-22T18:15:47.209Z,29.07
2018-04-22T18:18:19.446Z,28.94
2018-04-22T18:20:50.801Z,28.75
2018-04-22T18:23:22.325Z,28.71
2018-04-22T18:25:54.699Z,28.59
2018-04-22T18:28:25.615Z,28.44
2018-04-22T18:30:57.121Z,28.35
2018-04-22T18:33:29.388Z,28.40
2018-04-22T18:35:59.824Z,28.24
2018-04-22T18:38:31.292Z,28.37
2018-04-22T18:41:02.809Z,28.32
2018-04-22T18:43:34.229Z,28.17
2018-04-22T18:46:06.488Z,28.21
2018-04-22T18:48:37.830Z,28.05
2018-04-22T18:51:09.179Z,28.00
2018-04-22T18:53:40.591Z,28.15
2018-04-22T18:56:12.251Z,28.08
2018-04-22T18:58:43.703Z,28.32
2018-04-22T19:01:15.225Z,28.33
2018-04-22T19:03:46.910Z,28.23
2018-04-22T19:06:18.329Z,28.17
2018-04-22T19:08:49.715Z,28.31
2018-04-22T19:11:21.526Z,28.28
2018-04-22T19:13:52.916Z,28.17
2018-04-22T19:16:24.473Z,28.08
2018-04-22T19:18:55.821Z,28.10
2018-04-22T19:21:27.191Z,27.89
2018-04-22T19:24:00.144Z,27.70
2018-04-22T19:26:31.524Z,27.79
2018-04-22T19:29:02.909Z,28.05
2018-04-22T19:31:35.145Z,28.10
2018-04-22T19:34:06.570Z,28.10
2018-04-22T19:36:39.218Z,28.05
2018-04-22T19:39:10.640Z,28.11
2018-04-22T19:41:41.946Z,28.01
2018-04-22T19:44:13.644Z,28.03
2018-04-22T19:46:44.976Z,28.15
2018-04-22T19:49:16.393Z,28.22
2018-04-22T19:51:48.175Z,28.04
2018-04-22T19:54:20.438Z,28.21
2018-04-22T19:56:52.110Z,28.31
2018-04-22T19:59:23.466Z,28.14
2018-04-22T20:01:55.044Z,28.28
2018-04-22T20:04:26.674Z,28.16
2018-04-22T20:06:57.967Z,28.10
2018-04-22T20:09:29.583Z,28.13
2018-04-22T20:12:01.045Z,28.32
2018-04-22T20:14:32.445Z,28.39
2018-04-22T20:17:06.155Z,28.44
2018-04-22T20:19:37.830Z,28.28
2018-04-22T20:22:09.236Z,28.24
2018-04-22T20:24:41.349Z,28.42
2018-04-22T20:27:12.651Z,28.41
2018-04-22T20:29:43.979Z,28.51
2018-04-22T20:32:16.503Z,28.45
2018-04-22T20:34:48.103Z,28.41
2018-04-22T20:37:20.027Z,28.30
2018-04-22T20:39:51.392Z,28.24
2018-04-22T20:42:22.705Z,28.17
2018-04-22T20:44:55.420Z,28.05
2018-04-22T20:47:26.816Z,28.09
2018-04-22T20:49:58.137Z,28.05
2018-04-22T20:52:30.746Z,28.04
2018-04-22T20:55:02.171Z,27.87
2018-04-22T20:57:33.551Z,27.78
2018-04-22T21:00:07.699Z,27.64
2018-04-22T21:02:38.842Z,27.48
2018-04-22T21:05:10.347Z,27.38
2018-04-22T21:07:41.775Z,27.27
2018-04-22T21:10:13.152Z,27.09
2018-04-22T21:12:45.443Z,27.05
2018-04-22T21:15:17.541Z,26.97
2018-04-22T21:17:48.873Z,26.87
2018-04-22T21:20:20.199Z,26.94
2018-04-22T21:22:52.941Z,26.94
2018-04-22T21:25:24.280Z,26.89
2018-04-22T21:27:55.679Z,26.70
2018-04-22T21:30:27.501Z,26.66
2018-04-22T21:32:58.843Z,26.58
2018-04-22T21:35:31.343Z,26.44
2018-04-22T21:38:03.694Z,26.42
2018-04-22T21:40:34.208Z,26.39
2018-04-22T21:43:05.985Z,26.24
2018-04-22T21:45:37.334Z,26.13
2018-04-22T21:48:08.897Z,26.08
2018-04-22T21:50:40.279Z,26.03
2018-04-22T21:53:12.470Z,25.95
2018-04-22T21:55:44.798Z,25.95
2018-04-22T21:58:16.844Z,25.90
2018-04-22T22:00:49.529Z,25.81
2018-04-22T22:03:21.714Z,25.78
2018-04-22T22:05:53.845Z,25.77
2018-04-22T22:08:26.087Z,25.76
2018-04-22T22:10:56.693Z,25.75
2018-04-22T22:13:29.827Z,25.71
2018-04-22T22:16:00.398Z,25.68
2018-04-22T22:18:31.270Z,25.64
2018-04-22T22:21:03.449Z,25.63
2018-04-22T22:23:34.787Z,25.68
2018-04-22T22:26:05.302Z,25.53
2018-04-22T22:28:35.717Z,25.41
2018-04-22T22:31:07.097Z,25.51
2018-04-22T22:33:39.349Z,25.45
2018-04-22T22:36:10.619Z,25.43
2018-04-22T22:38:41.148Z,25.29
2018-04-22T22:41:11.666Z,25.25
2018-04-22T22:43:42.167Z,25.18
2018-04-22T22:46:13.944Z,25.12
2018-04-22T22:48:44.398Z,25.06
2018-04-22T22:51:15.743Z,25.07
2018-04-22T22:53:46.300Z,24.93
2018-04-22T22:56:18.505Z,24.80
2018-04-22T22:58:48.993Z,24.64
2018-04-22T23:01:19.535Z,24.68
2018-04-22T23:03:49.978Z,24.63
2018-04-22T23:06:20.540Z,24.62
2018-04-22T23:08:51.024Z,24.66
2018-04-22T23:11:23.361Z,24.58
2018-04-22T23:13:53.827Z,24.31
2018-04-22T23:16:24.431Z,24.37
2018-04-22T23:18:55.455Z,24.31
2018-04-22T23:21:25.990Z,24.30
2018-04-22T23:23:56.441Z,24.28
2018-04-22T23:26:27.343Z,24.10
2018-04-22T23:28:57.788Z,23.91
2018-04-22T23:31:28.217Z,24.03
2018-04-22T23:33:59.055Z,23.92
2018-04-22T23:36:29.512Z,23.74
2018-04-22T23:39:01.821Z,23.68
2018-04-22T23:41:32.640Z,23.50
2018-04-22T23:44:03.064Z,23.50
2018-04-22T23:46:33.729Z,23.37
2018-04-22T23:49:04.253Z,23.38
2018-04-22T23:51:35.899Z,23.29
2018-04-22T23:54:06.662Z,23.26
2018-04-22T23:56:37.103Z,23.16
2018-04-22T23:59:08.077Z,23.02
